Time;durP1;ratioP1;P1;durP2;ratioP2;P2;SDS_P1;SDS_P2;PMS_P1;PMS_P2;Temp;Humidity;BMP_temperature;BMP_pressure;BME280_temperature;BME280_humidity;BME280_pressure;Samples;Min_cycle;Max_cycle;Signal;HPM_P1;HPM_P2
2022/01/02 00:01:44;;;;;;;14.02;12.63;;;;;;;19.07;42.49;102177.59;5013888;28;20417;-79
2022/01/02 00:04:17;;;;;;;14.23;12.82;;;;;;;19.10;42.21;102176.56;5015809;28;20050;-80
2022/01/02 00:06:48;;;;;;;13.10;11.90;;;;;;;19.11;42.04;102178.28;5015967;28;20509;-80
2022/01/02 00:09:37;;;;;;;13.80;12.48;;;;;;;19.12;42.23;102164.78;5015632;28;20060;-80
2022/01/02 00:15:42;;;;;;;12.88;11.68;;;;;;;19.15;41.93;102169.94;5016189;28;20052;-79
2022/01/02 00:18:13;;;;;;;14.85;13.50;;;;;;;19.15;42.09;102169.94;5015466;28;20057;-79
2022/01/02 00:20:47;;;;;;;13.27;12.18;;;;;;;19.17;41.70;102167.16;5014668;28;20056;-79
2022/01/02 00:23:21;;;;;;;13.73;12.52;;;;;;;19.17;41.77;102168.00;5015935;28;20382;-80
2022/01/02 00:25:55;;;;;;;12.80;11.60;;;;;;;19.17;41.72;102168.00;5015200;28;20046;-79
2022/01/02 00:28:22;;;;;;;12.00;10.85;;;;;;;19.17;41.69;102168.00;5015597;28;20053;-78
2022/01/02 00:30:50;;;;;;;12.32;11.20;;;;;;;19.17;41.56;102168.00;5013842;28;20058;-78
2022/01/02 00:33:19;;;;;;;12.98;11.80;;;;;;;19.17;41.62;102168.00;5013155;28;20217;-78
2022/01/02 00:35:47;;;;;;;13.77;12.57;;;;;;;19.16;41.64;102169.00;5014085;28;20054;-78
2022/01/02 00:38:22;;;;;;;12.57;11.48;;;;;;;19.17;41.55;102172.53;5015325;28;20481;-77
2022/01/02 00:40:54;;;;;;;13.00;11.80;;;;;;;19.14;41.53;102173.56;5015391;28;20512;-78
2022/01/02 00:43:46;;;;;;;12.73;11.52;;;;;;;19.15;41.76;102177.13;5013623;28;20061;-78
2022/01/02 00:46:14;;;;;;;12.40;11.20;;;;;;;19.14;41.63;102173.56;5013691;28;20068;-78
2022/01/02 00:48:45;;;;;;;12.30;11.30;;;;;;;19.14;41.44;102178.09;5013786;28;20057;-78
2022/01/02 00:51:47;;;;;;;12.40;11.32;;;;;;;19.12;41.57;102186.25;5015124;28;20544;-78
2022/01/02 00:54:17;;;;;;;11.40;10.40;;;;;;;19.13;41.44;102181.75;5013958;28;20065;-78
2022/01/02 00:56:51;;;;;;;11.15;10.18;;;;;;;19.13;41.67;102181.75;5013213;28;20045;-78
2022/01/02 00:59:29;;;;;;;12.35;11.23;;;;;;;19.11;41.64;102184.50;5014944;28;20401;-78
2022/01/02 01:02:03;;;;;;;12.13;11.02;;;;;;;19.11;41.50;102170.22;5015621;28;20053;-78
2022/01/02 01:04:33;;;;;;;12.52;11.32;;;;;;;19.11;41.55;102178.28;5015456;28;20045;-78
2022/01/02 01:07:05;;;;;;;11.68;10.63;;;;;;;19.10;41.49;102173.88;5015129;28;20041;-78
2022/01/02 01:09:33;;;;;;;12.30;11.27;;;;;;;19.11;41.58;102178.28;5013826;28;20397;-79
2022/01/02 01:12:03;;;;;;;11.25;10.20;;;;;;;19.10;41.29;102176.56;5023973;28;20492;-78
2022/01/02 01:14:31;;;;;;;12.00;10.93;;;;;;;19.10;41.63;102174.72;5015717;28;20110;-79
2022/01/02 01:16:59;;;;;;;10.73;9.82;;;;;;;19.08;41.41;102182.03;5014363;28;20048;-79
2022/01/02 01:19:27;;;;;;;11.77;10.77;;;;;;;19.08;41.78;102179.34;5013766;28;20053;-79
2022/01/02 01:21:54;;;;;;;12.23;10.98;;;;;;;19.08;41.35;102170.41;5012597;28;20049;-79
2022/01/02 01:24:22;;;;;;;11.88;10.88;;;;;;;19.09;41.32;102169.47;5014158;28;20053;-79
2022/01/02 01:26:53;;;;;;;11.45;10.27;;;;;;;19.10;41.45;102171.19;5014403;28;20050;-79
2022/01/02 01:29:20;;;;;;;11.43;10.43;;;;;;;19.09;41.37;102162.28;5013429;28;20057;-79
2022/01/02 01:31:48;;;;;;;11.52;10.50;;;;;;;19.09;41.31;102164.97;5014098;28;20046;-79
2022/01/02 01:34:16;;;;;;;11.10;10.10;;;;;;;19.10;41.33;102168.50;4996407;28;20531;-79
2022/01/02 01:36:43;;;;;;;11.43;10.38;;;;;;;19.09;41.45;102170.34;5013272;28;20072;-79
2022/01/02 01:39:10;;;;;;;10.85;9.95;;;;;;;19.09;41.30;102164.97;5012077;28;20053;-78
2022/01/02 01:41:39;;;;;;;11.57;10.68;;;;;;;19.09;41.20;102170.34;5013210;28;20504;-79
2022/01/02 01:44:40;;;;;;;11.32;10.32;;;;;;;19.11;41.03;102167.53;5012683;28;20056;-79
2022/01/02 01:46:57;;;;;;;11.63;10.48;;;;;;;19.09;41.18;102172.16;5012551;28;20417;-79
2022/01/02 01:49:29;;;;;;;11.57;10.55;;;;;;;19.08;41.19;102173.97;5012488;28;20057;-79
2022/01/02 01:51:58;;;;;;;11.50;10.38;;;;;;;19.09;40.99;102181.06;5012757;28;20073;-79
2022/01/02 01:54:26;;;;;;;11.60;10.60;;;;;;;19.09;41.13;102186.44;5011772;28;20053;-79
2022/01/02 01:56:54;;;;;;;11.18;10.27;;;;;;;19.08;41.05;102190.09;5012269;28;20064;-79
2022/01/02 01:59:25;;;;;;;11.27;10.38;;;;;;;19.09;41.10;102189.13;5012635;28;20060;-79
2022/01/02 02:01:55;;;;;;;11.80;10.70;;;;;;;19.09;41.05;102190.94;5011833;28;20050;-79
2022/01/02 02:04:22;;;;;;;11.38;10.38;;;;;;;19.09;41.18;102188.25;5012071;28;20049;-79
2022/01/02 02:06:53;;;;;;;11.63;10.63;;;;;;;19.08;41.11;102186.50;5012181;28;20053;-79
2022/01/02 02:09:24;;;;;;;11.68;10.68;;;;;;;19.08;41.21;102183.81;5012266;28;20052;-79
2022/01/02 02:12:00;;;;;;;12.32;11.23;;;;;;;19.08;41.24;102187.41;5015304;28;20354;-79
2022/01/02 02:14:33;;;;;;;12.38;11.23;;;;;;;19.08;41.01;102181.16;5025945;28;20050;-79
2022/01/02 02:17:01;;;;;;;11.98;10.88;;;;;;;19.07;41.26;102166.88;5031878;28;20076;-79
2022/01/02 02:19:29;;;;;;;11.55;10.55;;;;;;;19.09;41.18;102153.38;5031437;28;20060;-78
2022/01/02 02:21:58;;;;;;;11.15;10.15;;;;;;;19.07;41.10;102150.75;5031158;28;20420;-78
2022/01/02 02:24:25;;;;;;;11.45;10.35;;;;;;;19.07;41.06;102144.53;5033363;28;20378;-77
2022/01/02 02:26:53;;;;;;;11.63;10.63;;;;;;;19.07;41.07;102131.97;5023538;28;20045;-77
2022/01/02 02:29:21;;;;;;;11.13;10.20;;;;;;;19.06;40.89;102124.88;5013076;28;20069;-78
2022/01/02 02:31:52;;;;;;;10.60;9.60;;;;;;;19.07;40.92;102121.22;5013170;28;20053;-79
2022/01/02 02:34:20;;;;;;;12.15;11.05;;;;;;;19.07;40.95;102123.91;5012317;28;20057;-78
2022/01/02 02:36:47;;;;;;;11.07;10.18;;;;;;;19.07;40.99;102110.50;5011735;28;20054;-79
2022/01/02 02:39:15;;;;;;;11.10;10.10;;;;;;;19.07;40.96;102110.50;5012967;28;20046;-79
2022/01/02 02:41:43;;;;;;;10.98;9.95;;;;;;;19.05;40.82;102111.59;5012576;28;20065;-79
2022/01/02 02:44:22;;;;;;;12.00;11.00;;;;;;;19.07;40.68;102115.00;5011809;28;20064;-78
2022/01/02 02:49:39;;;;;;;12.15;10.82;;;;;;;19.06;40.89;102102.56;5011962;28;20397;-78
2022/01/02 02:52:17;;;;;;;11.02;10.13;;;;;;;19.06;40.73;102095.38;5011915;28;20050;-78
2022/01/02 02:54:44;;;;;;;10.77;9.88;;;;;;;19.07;40.71;102090.84;5012211;28;20054;-79
2022/01/02 02:57:13;;;;;;;11.25;10.25;;;;;;;19.07;40.69;102090.84;5016049;28;20050;-78
2022/01/02 02:59:42;;;;;;;11.00;10.02;;;;;;;19.05;40.78;102096.34;5015847;28;20057;-78
2022/01/02 03:02:10;;;;;;;12.27;11.18;;;;;;;19.06;40.86;102094.50;5016009;28;20477;-79
2022/01/02 03:04:42;;;;;;;11.10;10.20;;;;;;;19.07;40.86;102096.22;5015717;28;20058;-79
2022/01/02 03:07:09;;;;;;;11.60;10.60;;;;;;;19.06;40.80;102097.19;5015365;28;20058;-80
2022/01/02 03:09:39;;;;;;;11.80;10.65;;;;;;;19.07;40.94;102099.75;5016230;28;20413;-79
2022/01/02 03:12:11;;;;;;;11.93;10.70;;;;;;;19.05;40.71;102101.69;4999406;28;20061;-78
2022/01/02 03:14:42;;;;;;;11.93;10.82;;;;;;;19.06;40.99;102102.56;5027813;28;20053;-79
2022/01/02 03:17:10;;;;;;;12.60;11.50;;;;;;;19.05;40.81;102088.28;5015972;28;20061;-78
2022/01/02 03:19:38;;;;;;;11.60;10.60;;;;;;;19.05;40.95;102093.66;5016585;28;20394;-78
2022/01/02 03:22:08;;;;;;;12.25;11.10;;;;;;;19.05;40.90;102101.69;5015407;28;20045;-79
2022/01/02 03:24:35;;;;;;;11.75;10.70;;;;;;;19.05;40.89;102104.38;5015933;28;20145;-78
2022/01/02 03:27:03;;;;;;;13.13;11.82;;;;;;;19.05;40.82;102114.25;4999571;28;20065;-79
2022/01/02 03:29:30;;;;;;;12.15;11.05;;;;;;;19.04;40.96;102113.41;5000131;28;20057;-79
2022/01/02 03:31:59;;;;;;;12.77;11.68;;;;;;;19.04;40.77;102113.41;5015342;28;20061;-79
2022/01/02 03:34:27;;;;;;;13.20;12.00;;;;;;;19.03;40.75;102117.03;5015614;28;20057;-78
2022/01/02 03:36:55;;;;;;;12.23;11.02;;;;;;;19.03;41.15;102127.75;5015581;28;20065;-78
2022/01/02 03:39:22;;;;;;;13.27;12.07;;;;;;;19.02;41.21;102126.03;5015245;28;20509;-79
2022/01/02 03:41:50;;;;;;;13.98;12.63;;;;;;;19.00;41.12;102118.09;5015819;28;20050;-78
2022/01/02 03:44:17;;;;;;;12.35;11.35;;;;;;;19.00;41.17;102127.97;5015489;28;20046;-78
2022/01/02 03:46:45;;;;;;;12.32;11.32;;;;;;;18.99;41.26;102123.56;5014254;28;20057;-78
2022/01/02 03:49:13;;;;;;;12.90;11.85;;;;;;;18.98;41.23;102124.53;4998787;28;20061;-79
2022/01/02 03:51:41;;;;;;;13.15;12.05;;;;;;;18.97;41.08;102122.81;5014147;28;20061;-79
2022/01/02 03:54:09;;;;;;;12.50;11.40;;;;;;;18.96;41.17;102121.94;5015137;28;20046;-79
2022/01/02 03:56:36;;;;;;;12.50;11.40;;;;;;;18.97;41.26;102133.53;5014746;28;20359;-79
2022/01/02 03:59:04;;;;;;;12.13;11.13;;;;;;;18.96;41.30;102145.25;5014455;28;20065;-79
2022/01/02 04:01:31;;;;;;;12.23;11.15;;;;;;;18.95;41.17;102143.50;5015014;28;20064;-79
2022/01/02 04:03:59;;;;;;;13.32;12.18;;;;;;;18.95;41.01;102140.81;5014003;28;20416;-79
2022/01/02 04:06:26;;;;;;;12.85;11.77;;;;;;;18.94;41.17;102136.41;5014154;28;20069;-79
2022/01/02 04:08:54;;;;;;;11.43;10.48;;;;;;;18.94;41.14;102136.41;5015177;28;20049;-79
2022/01/02 04:11:21;;;;;;;12.40;11.25;;;;;;;18.95;40.95;102136.31;5014213;28;20054;-78
2022/01/02 04:13:49;;;;;;;11.30;10.40;;;;;;;18.96;40.84;102134.50;5016157;28;20045;-78
2022/01/02 04:16:16;;;;;;;11.50;10.50;;;;;;;18.96;40.76;102132.69;5034646;28;20049;-78
2022/01/02 04:18:43;;;;;;;11.20;10.20;;;;;;;18.97;40.93;102120.13;5035480;28;20049;-78
2022/01/02 04:21:12;;;;;;;11.35;10.30;;;;;;;18.98;40.65;102129.88;5033784;28;20049;-79
2022/01/02 04:23:39;;;;;;;10.88;9.90;;;;;;;18.98;40.71;102119.16;5035416;28;20042;-79
2022/01/02 04:26:07;;;;;;;10.38;9.48;;;;;;;18.97;40.76;102118.28;5035051;28;20049;-79
2022/01/02 04:28:34;;;;;;;10.30;9.40;;;;;;;18.96;40.63;102113.91;5017397;28;20057;-79
2022/01/02 04:31:02;;;;;;;11.18;10.18;;;;;;;18.97;40.66;102115.63;5014093;28;20061;-79
2022/01/02 04:33:31;;;;;;;9.80;9.00;;;;;;;18.98;40.69;102111.09;5013496;28;20056;-80
2022/01/02 04:35:59;;;;;;;10.00;9.10;;;;;;;18.97;40.69;102110.25;5013755;28;20061;-79
2022/01/02 04:38:26;;;;;;;9.55;8.60;;;;;;;18.97;40.65;102110.25;5013873;28;20390;-79
2022/01/02 04:40:54;;;;;;;10.32;9.52;;;;;;;18.96;40.85;102115.72;5013920;28;20053;-79
2022/01/02 04:43:21;;;;;;;10.85;9.95;;;;;;;18.97;40.83;102112.94;5014332;28;20046;-78
2022/01/02 04:45:49;;;;;;;9.45;8.65;;;;;;;18.97;40.85;102120.13;5014022;28;20053;-79
2022/01/02 04:48:17;;;;;;;10.50;9.25;;;;;;;18.97;40.74;102117.44;5014152;28;20045;-78
2022/01/02 04:50:44;;;;;;;9.45;8.65;;;;;;;18.94;40.75;102113.13;5014126;28;20053;-78
2022/01/02 04:53:12;;;;;;;9.30;8.50;;;;;;;18.96;40.54;102107.66;5014249;28;20054;-79
2022/01/02 04:55:40;;;;;;;9.23;8.43;;;;;;;18.96;40.62;102099.63;5013788;28;20056;-79
2022/01/02 04:58:09;;;;;;;9.13;8.32;;;;;;;18.96;40.56;102099.63;5013689;28;20058;-79
2022/01/02 05:00:37;;;;;;;9.43;8.63;;;;;;;18.96;40.62;102105.00;5014301;28;20050;-78
2022/01/02 05:03:06;;;;;;;8.80;8.10;;;;;;;18.96;40.35;102105.00;5013511;28;20057;-79
2022/01/02 05:05:34;;;;;;;9.05;8.15;;;;;;;18.95;40.55;102098.72;5013083;28;20046;-80
2022/01/02 05:08:02;;;;;;;8.40;7.65;;;;;;;18.95;40.72;102103.25;5013607;28;20051;-80
2022/01/02 05:10:31;;;;;;;8.57;7.88;;;;;;;18.95;40.67;102098.72;5013449;28;20049;-80
2022/01/02 05:12:59;;;;;;;7.65;7.05;;;;;;;18.95;40.63;102097.88;5013352;28;20050;-80
2022/01/02 05:15:26;;;;;;;9.02;8.23;;;;;;;18.95;40.59;102096.03;5013915;28;20045;-80
2022/01/02 05:17:53;;;;;;;8.98;8.25;;;;;;;18.95;40.62;102097.88;5015221;28;20050;-79
2022/01/02 05:20:21;;;;;;;8.48;7.68;;;;;;;18.94;40.58;102088.09;5012631;28;20050;-80
2022/01/02 05:22:49;;;;;;;9.10;8.27;;;;;;;18.93;40.77;102087.25;5013342;28;20458;-79
2022/01/02 05:25:17;;;;;;;7.88;7.18;;;;;;;18.92;40.53;102088.22;5012924;28;20057;-79
2022/01/02 05:27:44;;;;;;;8.50;7.78;;;;;;;18.94;40.52;102096.16;5012759;28;20065;-79
2022/01/02 05:30:12;;;;;;;8.38;7.68;;;;;;;18.92;40.61;102087.31;5013145;28;20077;-79
2022/01/02 05:32:39;;;;;;;8.40;7.68;;;;;;;18.92;40.62;102087.31;5012859;28;20058;-79
2022/01/02 05:35:07;;;;;;;7.55;6.95;;;;;;;18.92;40.62;102084.66;5013949;28;20042;-78
2022/01/02 05:37:34;;;;;;;7.97;7.28;;;;;;;18.90;40.62;102073.16;4996931;28;20113;-78
2022/01/02 05:40:03;;;;;;;8.10;7.35;;;;;;;18.89;40.69;102072.31;5013960;28;20052;-78
2022/01/02 05:42:30;;;;;;;7.63;7.03;;;;;;;18.88;40.86;102065.22;5012758;28;20053;-79
2022/01/02 05:44:57;;;;;;;7.38;6.78;;;;;;;18.86;40.52;102071.63;5014532;28;20049;-79
2022/01/02 05:47:27;;;;;;;7.47;6.78;;;;;;;18.86;40.98;102067.13;4996833;28;20053;-80
2022/01/02 05:49:55;;;;;;;8.43;7.72;;;;;;;18.85;40.82;102070.78;5012731;28;20060;-79
2022/01/02 05:52:22;;;;;;;8.00;7.20;;;;;;;18.84;40.61;102065.50;5012727;28;20050;-79
2022/01/02 05:54:49;;;;;;;9.05;7.63;;;;;;;18.84;40.74;102066.38;5012258;28;20057;-79
2022/01/02 05:57:17;;;;;;;8.00;7.20;;;;;;;18.83;40.83;102061.09;5012667;28;20390;-79
2022/01/02 05:59:44;;;;;;;8.23;7.45;;;;;;;18.82;40.67;102062.06;5011950;28;20049;-79
2022/01/02 06:02:13;;;;;;;7.70;7.07;;;;;;;18.82;40.67;102067.44;5011908;28;20050;-79
2022/01/02 06:04:40;;;;;;;7.22;6.63;;;;;;;18.80;40.52;102066.66;5012505;28;20046;-80
2022/01/02 06:07:09;;;;;;;6.72;6.13;;;;;;;18.81;40.68;102071.09;5012204;28;20505;-80
2022/01/02 06:09:36;;;;;;;7.68;6.97;;;;;;;18.80;40.81;102067.53;5012201;28;20493;-79
2022/01/02 06:12:05;;;;;;;8.18;7.38;;;;;;;18.80;40.60;102067.53;5012575;28;20050;-80
2022/01/02 06:14:32;;;;;;;7.40;6.70;;;;;;;18.79;40.71;102063.09;5013176;28;20057;-79
2022/01/02 06:16:59;;;;;;;7.40;6.72;;;;;;;18.79;40.49;102060.44;5016485;28;20049;-78
2022/01/02 06:19:27;;;;;;;6.88;6.28;;;;;;;18.80;40.79;102063.97;5031484;28;20072;-78
2022/01/02 06:21:55;;;;;;;7.22;6.63;;;;;;;18.78;40.66;102058.72;5032163;28;20099;-79
2022/01/02 06:24:22;;;;;;;7.53;6.82;;;;;;;18.78;40.70;102058.72;5033008;28;20041;-79
2022/01/02 06:26:50;;;;;;;7.13;6.38;;;;;;;18.77;40.60;102052.50;5032152;28;20409;-79
2022/01/02 06:29:17;;;;;;;7.35;6.40;;;;;;;18.77;40.79;102048.94;5015518;28;20519;-79
2022/01/02 06:31:45;;;;;;;7.38;6.78;;;;;;;18.77;40.67;102051.63;5011085;28;20057;-79
2022/01/02 06:34:12;;;;;;;6.85;6.35;;;;;;;18.77;40.21;102049.81;5011662;28;20061;-79
2022/01/02 06:36:40;;;;;;;6.82;6.22;;;;;;;18.77;40.37;102057.84;5012759;28;20061;-79
2022/01/02 06:39:07;;;;;;;6.93;6.32;;;;;;;18.79;40.16;102060.44;5012952;28;20414;-79
2022/01/02 06:41:35;;;;;;;7.32;6.63;;;;;;;18.80;40.23;102059.50;4996373;28;20058;-79
2022/01/02 06:44:03;;;;;;;6.32;5.82;;;;;;;18.81;40.19;102057.66;5011600;28;20050;-79
2022/01/02 06:46:30;;;;;;;6.75;6.15;;;;;;;18.82;40.20;102059.38;5013402;28;20068;-79
2022/01/02 06:48:57;;;;;;;7.30;6.60;;;;;;;18.82;40.11;102054.88;5012258;28;20072;-79
2022/01/02 06:51:45;;;;;;;6.40;5.90;;;;;;;18.83;40.00;102055.72;5012354;28;20054;-79
2022/01/02 06:54:13;;;;;;;6.80;6.22;;;;;;;18.81;40.11;102053.16;5012117;28;20052;-79
2022/01/02 06:56:40;;;;;;;7.15;6.45;;;;;;;18.83;40.14;102055.72;5013278;28;20042;-79
2022/01/02 06:59:07;;;;;;;6.72;6.15;;;;;;;18.83;40.05;102066.47;5011614;28;20421;-79
2022/01/02 07:01:35;;;;;;;6.75;6.05;;;;;;;18.82;40.03;102062.91;5011675;28;20050;-79
2022/01/02 07:04:03;;;;;;;6.68;5.88;;;;;;;18.82;40.13;102068.28;5012023;28;20382;-79
2022/01/02 07:06:30;;;;;;;6.50;5.90;;;;;;;18.82;40.05;102076.34;5011680;28;20054;-79
2022/01/02 07:08:58;;;;;;;6.53;6.03;;;;;;;18.82;40.02;102079.03;5011403;28;20054;-79
2022/01/02 07:11:25;;;;;;;7.22;6.65;;;;;;;18.83;40.10;102079.88;5013129;28;20382;-79
2022/01/02 07:13:53;;;;;;;6.25;5.75;;;;;;;18.82;40.34;102083.53;5012434;28;20069;-79
2022/01/02 07:16:20;;;;;;;6.30;5.70;;;;;;;18.81;40.32;102080.00;5012752;28;20422;-79
2022/01/02 07:18:48;;;;;;;6.85;6.25;;;;;;;18.80;40.32;102083.63;5029658;28;20060;-80
2022/01/02 07:21:17;;;;;;;6.57;5.97;;;;;;;18.81;40.47;102096.09;5032477;28;20041;-79
2022/01/02 07:23:45;;;;;;;6.68;6.13;;;;;;;18.82;40.46;102091.56;5031188;28;20461;-80
2022/01/02 07:26:12;;;;;;;6.53;5.93;;;;;;;18.80;40.67;102090.78;5032336;28;20049;-80
2022/01/02 07:28:40;;;;;;;6.55;5.82;;;;;;;18.78;40.81;102081.03;5032863;28;20056;-80
2022/01/02 07:31:07;;;;;;;6.15;5.65;;;;;;;18.80;40.86;102082.75;5032540;28;20053;-79
2022/01/02 07:33:35;;;;;;;6.95;6.35;;;;;;;18.78;40.65;102086.41;5032431;28;20045;-80
2022/01/02 07:36:02;;;;;;;6.43;5.93;;;;;;;18.78;40.85;102091.75;5015354;28;20054;-80
2022/01/02 07:38:31;;;;;;;6.28;5.72;;;;;;;18.77;40.78;102090.03;5020820;28;20042;-79
2022/01/02 07:40:58;;;;;;;6.65;6.05;;;;;;;18.77;40.73;102090.03;5012751;28;20050;-79
2022/01/02 07:43:26;;;;;;;6.38;5.78;;;;;;;18.75;40.76;102086.59;5014715;28;20046;-80
2022/01/02 07:45:53;;;;;;;6.90;6.30;;;;;;;18.75;40.91;102086.59;5016437;28;20042;-78
2022/01/02 07:48:21;;;;;;;6.72;6.22;;;;;;;18.74;40.87;102082.19;5016731;28;20386;-78
2022/01/02 07:50:48;;;;;;;6.95;6.30;;;;;;;18.74;40.89;102089.38;5016045;28;20042;-79
2022/01/02 07:53:15;;;;;;;7.55;6.85;;;;;;;18.74;41.05;102090.25;5016060;28;20513;-78
2022/01/02 07:55:43;;;;;;;7.25;6.55;;;;;;;18.73;41.28;102088.53;5016493;28;20037;-79
2022/01/02 07:58:13;;;;;;;7.60;7.00;;;;;;;18.74;41.21;102105.47;5017918;28;20054;-79
2022/01/02 08:00:41;;;;;;;7.03;6.32;;;;;;;18.73;41.33;102101.94;5020261;28;20045;-77
2022/01/02 08:03:09;;;;;;;6.75;6.13;;;;;;;18.73;41.33;102093.88;5018768;28;20053;-78
2022/01/02 08:05:39;;;;;;;6.70;6.10;;;;;;;18.74;41.26;102097.44;5016773;28;20397;-78
2022/01/02 08:08:07;;;;;;;6.63;6.03;;;;;;;18.74;41.21;102103.66;5015638;28;20046;-77
2022/01/02 08:10:38;;;;;;;6.75;6.15;;;;;;;18.74;41.24;102108.16;5016334;28;20060;-79
2022/01/02 08:13:05;;;;;;;6.45;5.85;;;;;;;18.73;41.33;102099.25;5016114;28;20054;-79
2022/01/02 08:15:32;;;;;;;6.95;6.05;;;;;;;18.73;41.05;102101.94;5014209;28;20366;-80
2022/01/02 08:18:00;;;;;;;7.18;6.47;;;;;;;18.72;41.25;102102.03;5019955;28;20396;-81
2022/01/02 08:20:27;;;;;;;8.02;7.32;;;;;;;18.68;41.45;102092.44;5024300;28;20052;-80
2022/01/02 08:22:56;;;;;;;7.10;6.43;;;;;;;18.69;41.51;102102.19;5016081;28;20053;-80
2022/01/02 08:25:24;;;;;;;6.78;6.15;;;;;;;18.68;41.60;102101.34;5015644;28;20042;-79
2022/01/02 08:27:51;;;;;;;6.72;6.05;;;;;;;18.67;41.58;102104.97;5015496;28;20509;-78
2022/01/02 08:30:19;;;;;;;6.78;6.18;;;;;;;18.67;41.21;102112.16;5015125;28;20077;-79
2022/01/02 08:32:46;;;;;;;7.70;7.00;;;;;;;18.65;41.44;102101.53;5013413;28;20069;-79
2022/01/02 08:35:13;;;;;;;7.70;7.10;;;;;;;18.64;41.44;102098.94;5015518;28;20049;-79
2022/01/02 08:37:42;;;;;;;7.35;6.68;;;;;;;18.64;41.39;102094.44;5013884;28;20046;-79
2022/01/02 08:40:09;;;;;;;7.50;6.72;;;;;;;18.63;41.50;102098.06;5015181;28;20046;-79
2022/01/02 08:42:37;;;;;;;6.45;5.85;;;;;;;18.63;41.40;102102.56;5015662;28;20057;-79
2022/01/02 08:45:05;;;;;;;7.53;6.82;;;;;;;18.63;41.21;102106.09;5013962;28;20041;-79
2022/01/02 08:47:32;;;;;;;7.60;6.97;;;;;;;18.65;41.14;102100.66;5013978;28;20502;-79
2022/01/02 08:50:00;;;;;;;7.95;7.25;;;;;;;18.64;41.25;102107.84;5015615;28;20050;-78
2022/01/02 08:52:27;;;;;;;7.80;7.00;;;;;;;18.65;41.34;102095.31;5014762;28;20046;-78
2022/01/02 08:54:55;;;;;;;9.15;7.78;;;;;;;18.65;41.27;102106.88;5012798;28;20053;-79
2022/01/02 08:57:22;;;;;;;7.03;6.32;;;;;;;18.65;41.62;102098.84;5015065;28;20053;-79
2022/01/02 08:59:49;;;;;;;7.70;7.00;;;;;;;18.67;41.43;102104.09;5014918;28;20053;-80
2022/01/02 09:02:21;;;;;;;6.85;6.25;;;;;;;18.68;41.30;102100.47;5014853;28;20485;-80
2022/01/02 09:04:48;;;;;;;9.95;9.00;;;;;;;18.63;38.52;102107.94;5013496;28;20060;-80
2022/01/02 09:07:16;;;;;;;12.18;10.77;;;;;;;18.18;36.55;102110.69;5014645;28;20061;-79
2022/01/02 09:09:43;;;;;;;13.02;11.82;;;;;;;17.67;37.29;102112.81;5014894;28;20045;-80
2022/01/02 09:12:14;;;;;;;12.23;11.02;;;;;;;17.25;37.87;102105.44;5014738;28;20049;-80
2022/01/02 09:14:42;;;;;;;10.90;9.90;;;;;;;16.85;39.04;102104.13;5013492;28;20520;-81
2022/01/02 09:17:10;;;;;;;11.55;10.25;;;;;;;16.68;39.87;102097.84;5014575;28;20054;-79
2022/01/02 09:19:38;;;;;;;12.75;10.10;;;;;;;16.60;39.99;102097.41;5022190;28;20067;-78
2022/01/02 09:22:05;;;;;;;11.52;9.63;;;;;;;16.48;40.80;102103.41;5031207;28;20042;-78
2022/01/02 09:24:33;;;;;;;11.23;10.13;;;;;;;16.43;40.73;102102.81;5034614;28;20056;-79
2022/01/02 09:27:00;;;;;;;11.18;10.02;;;;;;;16.36;41.19;102099.59;5033994;28;20042;-79
2022/01/02 09:29:28;;;;;;;10.45;9.25;;;;;;;16.37;41.32;102104.00;5034631;28;20056;-79
2022/01/02 09:31:56;;;;;;;10.93;9.93;;;;;;;16.32;41.32;102112.25;5032769;28;20232;-79
2022/01/02 09:34:23;;;;;;;9.82;8.90;;;;;;;16.34;41.31;102095.28;5033368;28;20054;-78
2022/01/02 09:36:50;;;;;;;10.20;9.25;;;;;;;16.32;41.55;102103.38;5034380;28;20048;-78
2022/01/02 09:39:18;;;;;;;12.45;9.82;;;;;;;16.38;41.63;102086.16;5016133;28;20053;-79
2022/01/02 09:41:45;;;;;;;8.27;7.43;;;;;;;16.59;43.41;102090.34;5014371;28;20050;-78
2022/01/02 09:44:13;;;;;;;7.70;6.95;;;;;;;16.78;43.49;102090.25;5014278;28;20046;-79
2022/01/02 09:46:41;;;;;;;10.13;7.45;;;;;;;16.93;43.44;102100.06;5013973;28;20067;-78
2022/01/02 09:49:09;;;;;;;9.07;7.85;;;;;;;17.05;43.27;102093.19;5012836;28;20045;-81
2022/01/02 09:51:36;;;;;;;8.35;7.55;;;;;;;17.16;43.22;102088.09;5015070;28;20046;-80
2022/01/02 09:54:04;;;;;;;9.10;7.55;;;;;;;17.28;42.94;102100.78;5012672;28;20061;-79
2022/01/02 09:56:31;;;;;;;10.35;7.13;;;;;;;17.35;42.70;102087.06;5013356;28;20050;-81
2022/01/02 09:59:01;;;;;;;15.73;7.35;;;;;;;17.41;42.79;102082.19;5014005;28;20053;-81
2022/01/02 10:01:32;;;;;;;8.95;7.28;;;;;;;17.47;42.74;102075.63;5012598;28;20049;-78
2022/01/02 10:03:59;;;;;;;8.88;7.80;;;;;;;17.53;42.82;102091.31;5011934;28;20064;-79
2022/01/02 10:06:39;;;;;;;8.00;7.20;;;;;;;17.59;42.64;102090.97;5014084;28;20049;-79
2022/01/02 10:09:16;;;;;;;12.20;8.07;;;;;;;17.63;42.81;102089.84;5013727;28;20049;-80
2022/01/02 10:11:43;;;;;;;10.25;8.32;;;;;;;17.66;42.87;102094.13;5012665;28;20054;-78
2022/01/02 10:14:11;;;;;;;8.48;7.32;;;;;;;17.69;42.87;102092.16;5013470;28;20061;-78
2022/01/02 10:16:41;;;;;;;8.80;6.35;;;;;;;17.72;42.83;102083.94;5012449;28;20054;-81
2022/01/02 10:19:29;;;;;;;7.70;6.95;;;;;;;17.76;42.80;102082.84;5012235;28;20054;-78
2022/01/02 10:22:00;;;;;;;7.65;6.95;;;;;;;17.78;42.81;102080.94;5023152;28;20042;-78
2022/01/02 10:24:40;;;;;;;7.05;6.18;;;;;;;17.82;43.00;102086.97;5012197;28;20042;-78
2022/01/02 10:27:15;;;;;;;9.40;6.55;;;;;;;17.83;43.15;102075.31;5012479;28;20478;-78
2022/01/02 10:29:55;;;;;;;6.97;5.55;;;;;;;17.85;43.18;102070.72;5012296;28;20050;-78
2022/01/02 10:32:36;;;;;;;8.60;5.95;;;;;;;17.88;43.32;102065.19;5013263;28;20042;-79
2022/01/02 10:35:18;;;;;;;7.35;6.65;;;;;;;17.89;43.29;102056.16;5013562;28;20050;-78
2022/01/02 10:37:57;;;;;;;7.55;6.65;;;;;;;17.91;43.59;102050.75;5013690;28;20049;-80
2022/01/02 10:40:29;;;;;;;11.10;7.00;;;;;;;17.92;43.29;102041.75;5013260;28;20042;-78
2022/01/02 10:42:58;;;;;;;7.22;6.50;;;;;;;17.93;42.88;102036.28;5013161;28;20050;-78
2022/01/02 10:45:32;;;;;;;9.32;6.53;;;;;;;17.94;43.16;102029.09;5013905;28;20042;-80
2022/01/02 10:48:00;;;;;;;7.13;6.43;;;;;;;17.94;42.90;102024.59;5012434;28;20065;-80
2022/01/02 10:50:36;;;;;;;6.97;6.28;;;;;;;17.96;43.14;102013.81;5013545;28;20121;-80
2022/01/02 10:53:16;;;;;;;8.18;6.53;;;;;;;17.97;43.00;102007.47;5013422;28;20050;-80
2022/01/02 10:55:45;;;;;;;8.27;6.00;;;;;;;17.98;43.20;102017.25;5013729;28;20398;-80
2022/01/02 10:58:14;;;;;;;8.25;5.85;;;;;;;17.98;43.07;102012.75;5012501;28;20069;-79
2022/01/02 11:00:42;;;;;;;6.53;5.53;;;;;;;17.99;43.21;102010.94;5012245;28;20528;-79
2022/01/02 11:03:09;;;;;;;8.50;6.50;;;;;;;17.99;43.28;101997.56;5013273;28;20073;-80
2022/01/02 11:05:39;;;;;;;8.10;6.00;;;;;;;18.00;43.21;102009.97;5013546;28;20049;-78
2022/01/02 11:08:07;;;;;;;7.32;5.93;;;;;;;18.00;43.22;102000.13;5013447;28;20054;-79
2022/01/02 11:10:35;;;;;;;8.27;5.47;;;;;;;18.01;43.21;101990.25;5011403;28;20054;-79
2022/01/02 11:13:05;;;;;;;6.45;5.75;;;;;;;18.01;43.34;101988.44;5013096;28;20513;-79
2022/01/02 11:15:34;;;;;;;5.68;5.10;;;;;;;18.03;43.34;101994.59;5011681;28;20474;-79
2022/01/02 11:18:02;;;;;;;6.45;5.20;;;;;;;18.03;43.30;101989.22;5015335;28;20042;-79
2022/01/02 11:20:33;;;;;;;7.05;5.65;;;;;;;18.03;43.38;101986.53;5016354;28;20042;-87
2022/01/02 11:23:09;;;;;;;8.27;5.85;;;;;;;18.04;43.33;101982.91;5023953;28;20512;-78
2022/01/02 11:25:55;;;;;;;5.63;5.10;;;;;;;18.04;43.64;101976.69;5035563;28;20476;-78
2022/01/02 11:28:26;;;;;;;5.75;5.15;;;;;;;18.06;43.57;101974.75;5036640;28;20054;-78
2022/01/02 11:30:54;;;;;;;7.25;5.65;;;;;;;18.08;43.50;101972.00;5035456;28;20053;-79
2022/01/02 11:33:39;;;;;;;5.72;5.05;;;;;;;18.09;43.67;101958.50;5015672;28;20053;-78
2022/01/02 11:36:23;;;;;;;6.63;5.65;;;;;;;18.10;43.75;101956.66;5016553;28;20050;-78